sensor_id;sensor_type;location;lat;lon;timestamp;P1;durP1;ratioP1;P2;durP2;ratioP2
14241;SDS011;7205;50.864;12.766;2023-03-09T00:00:34;9.50;;;8.60;;
14241;SDS011;7205;50.864;12.766;2023-03-09T00:03:01;8.57;;;7.87;;
14241;SDS011;7205;50.864;12.766;2023-03-09T00:05:28;9.13;;;8.37;;
14241;SDS011;7205;50.864;12.766;2023-03-09T00:07:56;9.10;;;8.33;;
14241;SDS011;7205;50.864;12.766;2023-03-09T00:10:23;8.53;;;7.83;;
14241;SDS011;7205;50.864;12.766;2023-03-09T00:12:50;9.27;;;8.47;;
14241;SDS011;7205;50.864;12.766;2023-03-09T00:15:17;8.87;;;8.07;;
14241;SDS011;7205;50.864;12.766;2023-03-09T00:17:43;9.60;;;8.63;;
14241;SDS011;7205;50.864;12.766;2023-03-09T00:20:11;9.50;;;8.60;;
14241;SDS011;7205;50.864;12.766;2023-03-09T00:22:42;9.10;;;8.30;;
14241;SDS011;7205;50.864;12.766;2023-03-09T00:25:15;10.33;;;9.33;;
14241;SDS011;7205;50.864;12.766;2023-03-09T00:27:42;9.57;;;8.60;;
14241;SDS011;7205;50.864;12.766;2023-03-09T00:30:12;10.23;;;9.27;;
14241;SDS011;7205;50.864;12.766;2023-03-09T00:32:39;10.27;;;9.33;;
14241;SDS011;7205;50.864;12.766;2023-03-09T00:35:07;11.30;;;10.17;;
14241;SDS011;7205;50.864;12.766;2023-03-09T00:37:34;10.67;;;9.67;;
14241;SDS011;7205;50.864;12.766;2023-03-09T00:40:02;10.63;;;9.63;;
14241;SDS011;7205;50.864;12.766;2023-03-09T00:42:36;11.73;;;10.60;;
14241;SDS011;7205;50.864;12.766;2023-03-09T00:45:05;11.40;;;10.30;;
14241;SDS011;7205;50.864;12.766;2023-03-09T00:47:33;10.93;;;9.83;;
14241;SDS011;7205;50.864;12.766;2023-03-09T00:50:00;12.03;;;10.50;;
14241;SDS011;7205;50.864;12.766;2023-03-09T00:52:28;11.67;;;10.53;;
14241;SDS011;7205;50.864;12.766;2023-03-09T00:54:55;11.03;;;9.97;;
14241;SDS011;7205;50.864;12.766;2023-03-09T00:57:22;12.47;;;11.27;;
14241;SDS011;7205;50.864;12.766;2023-03-09T00:59:51;12.80;;;11.50;;
14241;SDS011;7205;50.864;12.766;2023-03-09T01:02:18;11.83;;;10.57;;
14241;SDS011;7205;50.864;12.766;2023-03-09T01:04:45;10.90;;;9.90;;
14241;SDS011;7205;50.864;12.766;2023-03-09T01:07:13;11.67;;;10.47;;
14241;SDS011;7205;50.864;12.766;2023-03-09T01:09:40;11.30;;;9.63;;
14241;SDS011;7205;50.864;12.766;2023-03-09T01:12:08;9.53;;;8.63;;
14241;SDS011;7205;50.864;12.766;2023-03-09T01:14:35;11.00;;;9.97;;
14241;SDS011;7205;50.864;12.766;2023-03-09T01:17:03;11.40;;;10.30;;
14241;SDS011;7205;50.864;12.766;2023-03-09T01:19:30;10.93;;;9.83;;
14241;SDS011;7205;50.864;12.766;2023-03-09T01:21:57;11.50;;;10.30;;
14241;SDS011;7205;50.864;12.766;2023-03-09T01:24:24;11.23;;;10.13;;
14241;SDS011;7205;50.864;12.766;2023-03-09T01:26:54;12.73;;;11.00;;
14241;SDS011;7205;50.864;12.766;2023-03-09T01:29:21;11.67;;;10.53;;
14241;SDS011;7205;50.864;12.766;2023-03-09T01:31:48;12.43;;;10.60;;
14241;SDS011;7205;50.864;12.766;2023-03-09T01:34:16;11.30;;;10.20;;
14241;SDS011;7205;50.864;12.766;2023-03-09T01:36:43;11.17;;;10.07;;
14241;SDS011;7205;50.864;12.766;2023-03-09T01:39:10;11.27;;;10.17;;
14241;SDS011;7205;50.864;12.766;2023-03-09T01:41:37;10.90;;;9.90;;
14241;SDS011;7205;50.864;12.766;2023-03-09T01:44:08;11.93;;;10.67;;
14241;SDS011;7205;50.864;12.766;2023-03-09T01:46:47;11.00;;;9.90;;
14241;SDS011;7205;50.864;12.766;2023-03-09T01:49:20;10.30;;;9.40;;
14241;SDS011;7205;50.864;12.766;2023-03-09T01:51:54;10.23;;;9.23;;
14241;SDS011;7205;50.864;12.766;2023-03-09T01:54:26;10.77;;;9.67;;
14241;SDS011;7205;50.864;12.766;2023-03-09T01:57:01;9.87;;;8.87;;
14241;SDS011;7205;50.864;12.766;2023-03-09T01:59:32;10.07;;;9.10;;
14241;SDS011;7205;50.864;12.766;2023-03-09T02:02:00;9.77;;;8.77;;
14241;SDS011;7205;50.864;12.766;2023-03-09T02:04:31;9.20;;;8.40;;
14241;SDS011;7205;50.864;12.766;2023-03-09T02:07:01;9.67;;;8.77;;
14241;SDS011;7205;50.864;12.766;2023-03-09T02:09:31;9.40;;;8.50;;
14241;SDS011;7205;50.864;12.766;2023-03-09T02:12:04;9.70;;;8.70;;
14241;SDS011;7205;50.864;12.766;2023-03-09T02:14:34;9.60;;;8.70;;
14241;SDS011;7205;50.864;12.766;2023-03-09T02:17:01;9.57;;;8.63;;
14241;SDS011;7205;50.864;12.766;2023-03-09T02:19:33;8.53;;;7.80;;
14241;SDS011;7205;50.864;12.766;2023-03-09T02:22:07;8.83;;;8.03;;
14241;SDS011;7205;50.864;12.766;2023-03-09T02:24:37;9.13;;;8.33;;
14241;SDS011;7205;50.864;12.766;2023-03-09T02:27:17;8.93;;;8.03;;
14241;SDS011;7205;50.864;12.766;2023-03-09T02:29:45;9.67;;;8.70;;
14241;SDS011;7205;50.864;12.766;2023-03-09T02:32:14;9.73;;;8.73;;
14241;SDS011;7205;50.864;12.766;2023-03-09T02:34:42;9.67;;;8.77;;
14241;SDS011;7205;50.864;12.766;2023-03-09T02:37:26;10.00;;;9.00;;
14241;SDS011;7205;50.864;12.766;2023-03-09T02:39:59;9.17;;;8.33;;
14241;SDS011;7205;50.864;12.766;2023-03-09T02:42:33;9.70;;;8.80;;
14241;SDS011;7205;50.864;12.766;2023-03-09T02:44:59;10.00;;;9.03;;
14241;SDS011;7205;50.864;12.766;2023-03-09T02:47:29;9.47;;;8.57;;
14241;SDS011;7205;50.864;12.766;2023-03-09T02:49:56;9.57;;;8.57;;
14241;SDS011;7205;50.864;12.766;2023-03-09T02:52:23;10.33;;;9.37;;
14241;SDS011;7205;50.864;12.766;2023-03-09T02:54:51;9.20;;;8.30;;
14241;SDS011;7205;50.864;12.766;2023-03-09T02:57:18;9.23;;;8.43;;
14241;SDS011;7205;50.864;12.766;2023-03-09T02:59:47;10.13;;;9.23;;
14241;SDS011;7205;50.864;12.766;2023-03-09T03:02:14;8.90;;;8.10;;
14241;SDS011;7205;50.864;12.766;2023-03-09T03:04:41;10.13;;;9.13;;
14241;SDS011;7205;50.864;12.766;2023-03-09T03:07:09;10.43;;;9.23;;
14241;SDS011;7205;50.864;12.766;2023-03-09T03:09:36;10.67;;;9.57;;
14241;SDS011;7205;50.864;12.766;2023-03-09T03:12:03;10.17;;;9.27;;
14241;SDS011;7205;50.864;12.766;2023-03-09T03:14:31;10.90;;;9.83;;
14241;SDS011;7205;50.864;12.766;2023-03-09T03:16:59;10.17;;;9.27;;
14241;SDS011;7205;50.864;12.766;2023-03-09T03:19:26;11.07;;;9.97;;
14241;SDS011;7205;50.864;12.766;2023-03-09T03:21:54;10.90;;;9.80;;
14241;SDS011;7205;50.864;12.766;2023-03-09T03:24:21;10.23;;;9.23;;
14241;SDS011;7205;50.864;12.766;2023-03-09T03:26:48;10.67;;;9.67;;
14241;SDS011;7205;50.864;12.766;2023-03-09T03:29:19;11.13;;;10.03;;
14241;SDS011;7205;50.864;12.766;2023-03-09T03:31:47;10.07;;;9.10;;
14241;SDS011;7205;50.864;12.766;2023-03-09T03:34:15;12.03;;;10.77;;
14241;SDS011;7205;50.864;12.766;2023-03-09T03:36:45;11.33;;;10.10;;
14241;SDS011;7205;50.864;12.766;2023-03-09T03:39:13;11.90;;;10.43;;
14241;SDS011;7205;50.864;12.766;2023-03-09T03:41:40;12.23;;;11.03;;
14241;SDS011;7205;50.864;12.766;2023-03-09T03:44:10;12.73;;;11.20;;
14241;SDS011;7205;50.864;12.766;2023-03-09T03:46:39;11.60;;;10.40;;
14241;SDS011;7205;50.864;12.766;2023-03-09T03:49:07;10.83;;;9.73;;
14241;SDS011;7205;50.864;12.766;2023-03-09T03:51:37;9.83;;;8.80;;
14241;SDS011;7205;50.864;12.766;2023-03-09T03:54:04;9.70;;;8.77;;
14241;SDS011;7205;50.864;12.766;2023-03-09T03:56:32;10.80;;;8.73;;
14241;SDS011;7205;50.864;12.766;2023-03-09T03:59:04;8.60;;;7.80;;
14241;SDS011;7205;50.864;12.766;2023-03-09T04:01:31;8.33;;;7.60;;
14241;SDS011;7205;50.864;12.766;2023-03-09T04:04:03;7.53;;;6.87;;
14241;SDS011;7205;50.864;12.766;2023-03-09T04:06:32;5.63;;;5.23;;
14241;SDS011;7205;50.864;12.766;2023-03-09T04:09:01;5.70;;;5.30;;
14241;SDS011;7205;50.864;12.766;2023-03-09T04:11:30;6.00;;;5.50;;
14241;SDS011;7205;50.864;12.766;2023-03-09T04:13:58;5.60;;;5.20;;
14241;SDS011;7205;50.864;12.766;2023-03-09T04:16:25;5.93;;;5.43;;
14241;SDS011;7205;50.864;12.766;2023-03-09T04:18:52;6.00;;;5.47;;
14241;SDS011;7205;50.864;12.766;2023-03-09T04:21:20;5.57;;;5.17;;
14241;SDS011;7205;50.864;12.766;2023-03-09T04:23:47;6.20;;;5.70;;
14241;SDS011;7205;50.864;12.766;2023-03-09T04:26:15;5.80;;;5.37;;
14241;SDS011;7205;50.864;12.766;2023-03-09T04:29:01;6.80;;;6.20;;
14241;SDS011;7205;50.864;12.766;2023-03-09T04:31:29;6.20;;;5.70;;
14241;SDS011;7205;50.864;12.766;2023-03-09T04:33:57;6.50;;;6.00;;
14241;SDS011;7205;50.864;12.766;2023-03-09T04:36:24;6.07;;;5.60;;
14241;SDS011;7205;50.864;12.766;2023-03-09T04:38:52;6.20;;;5.70;;
14241;SDS011;7205;50.864;12.766;2023-03-09T04:41:22;5.80;;;5.30;;
14241;SDS011;7205;50.864;12.766;2023-03-09T04:43:52;6.30;;;5.80;;
14241;SDS011;7205;50.864;12.766;2023-03-09T04:46:19;5.77;;;5.33;;
14241;SDS011;7205;50.864;12.766;2023-03-09T04:48:49;6.23;;;5.73;;
14241;SDS011;7205;50.864;12.766;2023-03-09T04:51:16;6.40;;;5.90;;
14241;SDS011;7205;50.864;12.766;2023-03-09T04:53:44;6.47;;;5.97;;
14241;SDS011;7205;50.864;12.766;2023-03-09T04:56:11;6.10;;;5.70;;
14241;SDS011;7205;50.864;12.766;2023-03-09T04:58:50;5.57;;;5.07;;
14241;SDS011;7205;50.864;12.766;2023-03-09T05:01:21;5.70;;;5.30;;
14241;SDS011;7205;50.864;12.766;2023-03-09T05:03:48;6.13;;;5.63;;
14241;SDS011;7205;50.864;12.766;2023-03-09T05:06:15;6.23;;;5.73;;
14241;SDS011;7205;50.864;12.766;2023-03-09T05:08:43;6.60;;;6.10;;
14241;SDS011;7205;50.864;12.766;2023-03-09T05:11:10;7.53;;;6.90;;
14241;SDS011;7205;50.864;12.766;2023-03-09T05:13:39;6.37;;;5.87;;
14241;SDS011;7205;50.864;12.766;2023-03-09T05:16:11;5.63;;;5.23;;
14241;SDS011;7205;50.864;12.766;2023-03-09T05:18:42;6.20;;;5.70;;
14241;SDS011;7205;50.864;12.766;2023-03-09T05:21:10;6.20;;;5.27;;
14241;SDS011;7205;50.864;12.766;2023-03-09T05:23:38;6.10;;;5.70;;
14241;SDS011;7205;50.864;12.766;2023-03-09T05:26:06;5.57;;;5.17;;
14241;SDS011;7205;50.864;12.766;2023-03-09T05:28:35;6.50;;;6.00;;
14241;SDS011;7205;50.864;12.766;2023-03-09T05:31:06;6.63;;;6.07;;
14241;SDS011;7205;50.864;12.766;2023-03-09T05:33:35;6.67;;;6.17;;
14241;SDS011;7205;50.864;12.766;2023-03-09T05:36:03;6.43;;;5.90;;
14241;SDS011;7205;50.864;12.766;2023-03-09T05:38:39;5.77;;;5.37;;
14241;SDS011;7205;50.864;12.766;2023-03-09T05:41:06;6.03;;;5.63;;
14241;SDS011;7205;50.864;12.766;2023-03-09T05:43:33;7.07;;;6.47;;
14241;SDS011;7205;50.864;12.766;2023-03-09T05:46:01;6.90;;;6.23;;
14241;SDS011;7205;50.864;12.766;2023-03-09T05:48:31;9.03;;;8.20;;
14241;SDS011;7205;50.864;12.766;2023-03-09T05:51:00;6.53;;;6.03;;
14241;SDS011;7205;50.864;12.766;2023-03-09T05:53:27;6.60;;;6.10;;
14241;SDS011;7205;50.864;12.766;2023-03-09T05:55:56;8.23;;;7.47;;
14241;SDS011;7205;50.864;12.766;2023-03-09T05:58:23;6.07;;;5.67;;
14241;SDS011;7205;50.864;12.766;2023-03-09T06:00:52;8.70;;;7.90;;
14241;SDS011;7205;50.864;12.766;2023-03-09T06:03:19;8.90;;;8.00;;
14241;SDS011;7205;50.864;12.766;2023-03-09T06:05:57;7.73;;;7.03;;
14241;SDS011;7205;50.864;12.766;2023-03-09T06:08:26;7.73;;;7.03;;
14241;SDS011;7205;50.864;12.766;2023-03-09T06:10:56;7.70;;;7.00;;
14241;SDS011;7205;50.864;12.766;2023-03-09T06:13:25;7.50;;;6.67;;
14241;SDS011;7205;50.864;12.766;2023-03-09T06:15:53;7.80;;;7.00;;
14241;SDS011;7205;50.864;12.766;2023-03-09T06:18:21;9.37;;;7.07;;
14241;SDS011;7205;50.864;12.766;2023-03-09T06:20:48;8.43;;;7.53;;
14241;SDS011;7205;50.864;12.766;2023-03-09T06:23:15;11.27;;;7.30;;
14241;SDS011;7205;50.864;12.766;2023-03-09T06:25:43;68.80;;;11.27;;
14241;SDS011;7205;50.864;12.766;2023-03-09T06:28:10;127.23;;;12.17;;
14241;SDS011;7205;50.864;12.766;2023-03-09T06:30:39;141.67;;;12.90;;
14241;SDS011;7205;50.864;12.766;2023-03-09T06:33:08;132.53;;;13.97;;
14241;SDS011;7205;50.864;12.766;2023-03-09T06:35:37;152.83;;;13.80;;
14241;SDS011;7205;50.864;12.766;2023-03-09T06:38:07;96.73;;;12.07;;
14241;SDS011;7205;50.864;12.766;2023-03-09T06:40:34;194.90;;;16.17;;
14241;SDS011;7205;50.864;12.766;2023-03-09T06:43:04;80.30;;;12.70;;
14241;SDS011;7205;50.864;12.766;2023-03-09T06:45:32;22.97;;;9.23;;
14241;SDS011;7205;50.864;12.766;2023-03-09T06:48:00;15.87;;;9.53;;
14241;SDS011;7205;50.864;12.766;2023-03-09T06:50:31;11.00;;;9.10;;
14241;SDS011;7205;50.864;12.766;2023-03-09T06:52:58;12.33;;;7.97;;
14241;SDS011;7205;50.864;12.766;2023-03-09T06:55:25;100.40;;;12.77;;
14241;SDS011;7205;50.864;12.766;2023-03-09T06:57:58;201.50;;;14.80;;
14241;SDS011;7205;50.864;12.766;2023-03-09T07:00:27;77.23;;;11.63;;
14241;SDS011;7205;50.864;12.766;2023-03-09T07:02:59;212.10;;;14.17;;
14241;SDS011;7205;50.864;12.766;2023-03-09T07:05:26;278.40;;;14.83;;
14241;SDS011;7205;50.864;12.766;2023-03-09T07:07:53;200.37;;;12.83;;
14241;SDS011;7205;50.864;12.766;2023-03-09T07:10:20;230.63;;;12.37;;
14241;SDS011;7205;50.864;12.766;2023-03-09T07:12:47;234.90;;;13.30;;
14241;SDS011;7205;50.864;12.766;2023-03-09T07:15:14;409.87;;;18.53;;
14241;SDS011;7205;50.864;12.766;2023-03-09T07:17:43;193.80;;;12.13;;
14241;SDS011;7205;50.864;12.766;2023-03-09T07:20:10;109.90;;;8.03;;
14241;SDS011;7205;50.864;12.766;2023-03-09T07:22:37;108.23;;;8.17;;
14241;SDS011;7205;50.864;12.766;2023-03-09T07:25:05;101.37;;;7.00;;
14241;SDS011;7205;50.864;12.766;2023-03-09T07:27:32;98.30;;;7.60;;
14241;SDS011;7205;50.864;12.766;2023-03-09T07:29:59;61.83;;;6.37;;
14241;SDS011;7205;50.864;12.766;2023-03-09T07:32:26;98.47;;;7.53;;
14241;SDS011;7205;50.864;12.766;2023-03-09T07:34:54;161.23;;;9.77;;
14241;SDS011;7205;50.864;12.766;2023-03-09T07:37:25;132.50;;;9.20;;
14241;SDS011;7205;50.864;12.766;2023-03-09T07:39:52;50.87;;;6.97;;
14241;SDS011;7205;50.864;12.766;2023-03-09T07:42:19;107.33;;;8.63;;
14241;SDS011;7205;50.864;12.766;2023-03-09T07:45:12;264.77;;;13.90;;
14241;SDS011;7205;50.864;12.766;2023-03-09T07:47:39;176.97;;;10.17;;
14241;SDS011;7205;50.864;12.766;2023-03-09T07:50:08;213.90;;;12.60;;
14241;SDS011;7205;50.864;12.766;2023-03-09T07:52:38;200.00;;;11.67;;
14241;SDS011;7205;50.864;12.766;2023-03-09T07:55:06;126.50;;;10.70;;
14241;SDS011;7205;50.864;12.766;2023-03-09T07:57:37;189.40;;;11.37;;
14241;SDS011;7205;50.864;12.766;2023-03-09T08:00:04;239.87;;;13.73;;
14241;SDS011;7205;50.864;12.766;2023-03-09T08:05:45;172.73;;;12.03;;
14241;SDS011;7205;50.864;12.766;2023-03-09T08:08:15;167.67;;;12.67;;
14241;SDS011;7205;50.864;12.766;2023-03-09T08:10:46;118.03;;;11.87;;
14241;SDS011;7205;50.864;12.766;2023-03-09T08:13:13;39.67;;;10.03;;
14241;SDS011;7205;50.864;12.766;2023-03-09T08:15:40;36.30;;;9.23;;
14241;SDS011;7205;50.864;12.766;2023-03-09T08:18:07;122.80;;;13.00;;
14241;SDS011;7205;50.864;12.766;2023-03-09T08:20:34;90.87;;;12.97;;
14241;SDS011;7205;50.864;12.766;2023-03-09T08:23:03;25.90;;;9.43;;
14241;SDS011;7205;50.864;12.766;2023-03-09T08:25:32;31.03;;;8.63;;
14241;SDS011;7205;50.864;12.766;2023-03-09T08:28:00;13.30;;;8.43;;
14241;SDS011;7205;50.864;12.766;2023-03-09T08:30:26;9.40;;;8.50;;
14241;SDS011;7205;50.864;12.766;2023-03-09T08:32:54;8.20;;;7.40;;
14241;SDS011;7205;50.864;12.766;2023-03-09T08:35:22;7.30;;;6.67;;
14241;SDS011;7205;50.864;12.766;2023-03-09T08:37:50;8.10;;;7.30;;
14241;SDS011;7205;50.864;12.766;2023-03-09T08:40:19;8.50;;;7.60;;
14241;SDS011;7205;50.864;12.766;2023-03-09T08:42:46;8.27;;;7.47;;
14241;SDS011;7205;50.864;12.766;2023-03-09T08:45:12;7.87;;;7.07;;
14241;SDS011;7205;50.864;12.766;2023-03-09T08:47:39;7.30;;;6.60;;
14241;SDS011;7205;50.864;12.766;2023-03-09T08:50:07;6.07;;;5.57;;
14241;SDS011;7205;50.864;12.766;2023-03-09T08:52:34;4.87;;;4.57;;
14241;SDS011;7205;50.864;12.766;2023-03-09T08:55:05;4.70;;;4.30;;
14241;SDS011;7205;50.864;12.766;2023-03-09T08:57:35;5.67;;;4.40;;
14241;SDS011;7205;50.864;12.766;2023-03-09T09:00:02;6.73;;;6.13;;
14241;SDS011;7205;50.864;12.766;2023-03-09T09:02:29;6.20;;;5.67;;
14241;SDS011;7205;50.864;12.766;2023-03-09T09:04:56;3.73;;;3.50;;
14241;SDS011;7205;50.864;12.766;2023-03-09T09:07:23;4.97;;;4.57;;
14241;SDS011;7205;50.864;12.766;2023-03-09T09:09:50;5.37;;;4.90;;
14241;SDS011;7205;50.864;12.766;2023-03-09T09:12:17;5.57;;;5.07;;
14241;SDS011;7205;50.864;12.766;2023-03-09T09:14:45;3.50;;;3.20;;
14241;SDS011;7205;50.864;12.766;2023-03-09T09:17:12;3.20;;;3.00;;
14241;SDS011;7205;50.864;12.766;2023-03-09T09:19:40;3.73;;;3.43;;
14241;SDS011;7205;50.864;12.766;2023-03-09T09:22:12;2.20;;;2.00;;
14241;SDS011;7205;50.864;12.766;2023-03-09T09:25:14;2.47;;;2.27;;
14241;SDS011;7205;50.864;12.766;2023-03-09T09:27:36;2.63;;;2.43;;
14241;SDS011;7205;50.864;12.766;2023-03-09T09:30:11;2.93;;;2.73;;
14241;SDS011;7205;50.864;12.766;2023-03-09T09:32:41;1.70;;;1.60;;
14241;SDS011;7205;50.864;12.766;2023-03-09T09:35:09;2.40;;;2.30;;
14241;SDS011;7205;50.864;12.766;2023-03-09T09:37:37;2.70;;;2.50;;
14241;SDS011;7205;50.864;12.766;2023-03-09T09:40:08;2.40;;;2.30;;
14241;SDS011;7205;50.864;12.766;2023-03-09T09:42:39;2.30;;;2.10;;
14241;SDS011;7205;50.864;12.766;2023-03-09T09:45:21;2.23;;;2.13;;
14241;SDS011;7205;50.864;12.766;2023-03-09T09:48:00;2.73;;;2.53;;
14241;SDS011;7205;50.864;12.766;2023-03-09T09:50:38;2.77;;;2.67;;
14241;SDS011;7205;50.864;12.766;2023-03-09T09:53:16;4.20;;;3.90;;
14241;SDS011;7205;50.864;12.766;2023-03-09T09:55:52;3.60;;;3.30;;
14241;SDS011;7205;50.864;12.766;2023-03-09T09:58:25;3.97;;;3.67;;
14241;SDS011;7205;50.864;12.766;2023-03-09T10:01:01;3.93;;;3.63;;
14241;SDS011;7205;50.864;12.766;2023-03-09T10:03:37;2.87;;;2.77;;
14241;SDS011;7205;50.864;12.766;2023-03-09T10:06:09;5.70;;;5.20;;
14241;SDS011;7205;50.864;12.766;2023-03-09T10:08:43;4.57;;;4.27;;
14241;SDS011;7205;50.864;12.766;2023-03-09T10:11:16;4.93;;;4.53;;
14241;SDS011;7205;50.864;12.766;2023-03-09T10:13:52;5.03;;;4.63;;
14241;SDS011;7205;50.864;12.766;2023-03-09T10:16:25;4.30;;;4.00;;
14241;SDS011;7205;50.864;12.766;2023-03-09T10:18:55;4.27;;;3.97;;
14241;SDS011;7205;50.864;12.766;2023-03-09T10:21:26;4.83;;;3.70;;
14241;SDS011;7205;50.864;12.766;2023-03-09T10:23:58;3.80;;;3.50;;
14241;SDS011;7205;50.864;12.766;2023-03-09T10:26:39;3.90;;;2.80;;
14241;SDS011;7205;50.864;12.766;2023-03-09T10:29:14;3.03;;;2.83;;
14241;SDS011;7205;50.864;12.766;2023-03-09T10:31:48;3.23;;;3.03;;
14241;SDS011;7205;50.864;12.766;2023-03-09T10:34:19;3.13;;;2.93;;
14241;SDS011;7205;50.864;12.766;2023-03-09T10:36:55;3.30;;;3.10;;
14241;SDS011;7205;50.864;12.766;2023-03-09T10:39:27;3.03;;;2.83;;
14241;SDS011;7205;50.864;12.766;2023-03-09T10:41:59;3.00;;;2.90;;
14241;SDS011;7205;50.864;12.766;2023-03-09T10:44:37;3.10;;;3.00;;
14241;SDS011;7205;50.864;12.766;2023-03-09T10:47:05;2.73;;;2.60;;
14241;SDS011;7205;50.864;12.766;2023-03-09T10:49:32;2.90;;;2.80;;
14241;SDS011;7205;50.864;12.766;2023-03-09T10:51:59;3.27;;;3.10;;
14241;SDS011;7205;50.864;12.766;2023-03-09T10:54:29;3.10;;;2.93;;
14241;SDS011;7205;50.864;12.766;2023-03-09T10:57:00;3.30;;;3.10;;
14241;SDS011;7205;50.864;12.766;2023-03-09T10:59:28;3.20;;;3.00;;
14241;SDS011;7205;50.864;12.766;2023-03-09T11:01:56;5.03;;;4.63;;
14241;SDS011;7205;50.864;12.766;2023-03-09T11:04:36;4.90;;;4.60;;
14241;SDS011;7205;50.864;12.766;2023-03-09T11:07:15;7.63;;;6.93;;
14241;SDS011;7205;50.864;12.766;2023-03-09T11:09:48;5.90;;;5.40;;
14241;SDS011;7205;50.864;12.766;2023-03-09T11:12:20;8.27;;;7.40;;
14241;SDS011;7205;50.864;12.766;2023-03-09T11:14:50;13.23;;;10.90;;
14241;SDS011;7205;50.864;12.766;2023-03-09T11:17:28;8.00;;;7.30;;
14241;SDS011;7205;50.864;12.766;2023-03-09T11:22:59;7.00;;;6.40;;
14241;SDS011;7205;50.864;12.766;2023-03-09T11:25:39;6.77;;;6.17;;
14241;SDS011;7205;50.864;12.766;2023-03-09T11:28:14;7.17;;;6.57;;
14241;SDS011;7205;50.864;12.766;2023-03-09T11:30:51;6.87;;;6.17;;
14241;SDS011;7205;50.864;12.766;2023-03-09T11:33:21;7.83;;;7.07;;
14241;SDS011;7205;50.864;12.766;2023-03-09T11:35:51;7.97;;;7.23;;
14241;SDS011;7205;50.864;12.766;2023-03-09T11:38:19;9.83;;;8.83;;
14241;SDS011;7205;50.864;12.766;2023-03-09T11:40:48;5.93;;;5.43;;
14241;SDS011;7205;50.864;12.766;2023-03-09T11:43:23;5.63;;;5.13;;
14241;SDS011;7205;50.864;12.766;2023-03-09T11:45:56;4.43;;;3.60;;
14241;SDS011;7205;50.864;12.766;2023-03-09T11:48:26;5.93;;;5.43;;
14241;SDS011;7205;50.864;12.766;2023-03-09T11:51:00;3.73;;;3.50;;
14241;SDS011;7205;50.864;12.766;2023-03-09T11:53:33;4.93;;;4.27;;
14241;SDS011;7205;50.864;12.766;2023-03-09T11:56:08;3.33;;;3.17;;
14241;SDS011;7205;50.864;12.766;2023-03-09T11:58:42;3.93;;;3.63;;
14241;SDS011;7205;50.864;12.766;2023-03-09T12:01:15;3.23;;;3.03;;
14241;SDS011;7205;50.864;12.766;2023-03-09T12:03:49;3.37;;;3.17;;
14241;SDS011;7205;50.864;12.766;2023-03-09T12:06:41;3.43;;;3.23;;
14241;SDS011;7205;50.864;12.766;2023-03-09T12:09:18;2.80;;;2.60;;
14241;SDS011;7205;50.864;12.766;2023-03-09T12:11:51;2.90;;;2.80;;
14241;SDS011;7205;50.864;12.766;2023-03-09T12:14:23;3.30;;;3.10;;
14241;SDS011;7205;50.864;12.766;2023-03-09T12:16:56;3.20;;;3.00;;
14241;SDS011;7205;50.864;12.766;2023-03-09T12:19:29;3.00;;;2.80;;
14241;SDS011;7205;50.864;12.766;2023-03-09T12:22:01;3.23;;;2.93;;
14241;SDS011;7205;50.864;12.766;2023-03-09T12:24:32;3.13;;;2.93;;
14241;SDS011;7205;50.864;12.766;2023-03-09T12:27:04;2.80;;;2.60;;
14241;SDS011;7205;50.864;12.766;2023-03-09T12:29:40;3.30;;;3.10;;
14241;SDS011;7205;50.864;12.766;2023-03-09T12:32:18;4.00;;;2.90;;
14241;SDS011;7205;50.864;12.766;2023-03-09T12:34:59;3.80;;;3.60;;
14241;SDS011;7205;50.864;12.766;2023-03-09T12:37:41;4.73;;;4.07;;
14241;SDS011;7205;50.864;12.766;2023-03-09T12:40:21;3.97;;;3.67;;
14241;SDS011;7205;50.864;12.766;2023-03-09T12:42:57;5.20;;;4.10;;
14241;SDS011;7205;50.864;12.766;2023-03-09T12:45:46;4.70;;;4.30;;
14241;SDS011;7205;50.864;12.766;2023-03-09T12:48:19;5.63;;;5.03;;
14241;SDS011;7205;50.864;12.766;2023-03-09T12:50:53;5.07;;;4.20;;
14241;SDS011;7205;50.864;12.766;2023-03-09T12:53:27;5.03;;;4.63;;
14241;SDS011;7205;50.864;12.766;2023-03-09T12:55:55;4.47;;;4.07;;
14241;SDS011;7205;50.864;12.766;2023-03-09T13:01:26;4.90;;;4.50;;
14241;SDS011;7205;50.864;12.766;2023-03-09T13:04:09;5.70;;;5.20;;
14241;SDS011;7205;50.864;12.766;2023-03-09T13:06:38;5.47;;;5.07;;
14241;SDS011;7205;50.864;12.766;2023-03-09T13:09:15;5.90;;;5.40;;
14241;SDS011;7205;50.864;12.766;2023-03-09T13:11:46;6.17;;;5.50;;
14241;SDS011;7205;50.864;12.766;2023-03-09T13:15:03;6.03;;;5.53;;
14241;SDS011;7205;50.864;12.766;2023-03-09T13:17:35;6.10;;;5.60;;
14241;SDS011;7205;50.864;12.766;2023-03-09T13:20:22;5.27;;;4.87;;
14241;SDS011;7205;50.864;12.766;2023-03-09T13:22:51;5.00;;;4.60;;
14241;SDS011;7205;50.864;12.766;2023-03-09T13:25:34;5.27;;;4.87;;
14241;SDS011;7205;50.864;12.766;2023-03-09T13:28:27;5.10;;;4.70;;
14241;SDS011;7205;50.864;12.766;2023-03-09T13:31:07;4.90;;;4.50;;
14241;SDS011;7205;50.864;12.766;2023-03-09T13:33:46;4.43;;;4.13;;
14241;SDS011;7205;50.864;12.766;2023-03-09T13:36:14;4.30;;;4.00;;
14241;SDS011;7205;50.864;12.766;2023-03-09T13:38:48;4.17;;;3.87;;
14241;SDS011;7205;50.864;12.766;2023-03-09T13:41:20;4.13;;;3.83;;
14241;SDS011;7205;50.864;12.766;2023-03-09T13:43:51;4.60;;;4.20;;
14241;SDS011;7205;50.864;12.766;2023-03-09T13:46:23;3.30;;;3.10;;
14241;SDS011;7205;50.864;12.766;2023-03-09T13:48:57;3.07;;;2.87;;
14241;SDS011;7205;50.864;12.766;2023-03-09T13:51:37;2.50;;;2.40;;
14241;SDS011;7205;50.864;12.766;2023-03-09T13:54:21;2.43;;;2.23;;
14241;SDS011;7205;50.864;12.766;2023-03-09T13:57:00;2.10;;;2.00;;
14241;SDS011;7205;50.864;12.766;2023-03-09T13:59:30;2.00;;;1.90;;
14241;SDS011;7205;50.864;12.766;2023-03-09T14:02:08;1.97;;;1.87;;
14241;SDS011;7205;50.864;12.766;2023-03-09T14:04:43;2.90;;;2.00;;
14241;SDS011;7205;50.864;12.766;2023-03-09T14:07:13;1.70;;;1.60;;
14241;SDS011;7205;50.864;12.766;2023-03-09T14:09:43;2.10;;;2.00;;
14241;SDS011;7205;50.864;12.766;2023-03-09T14:12:24;2.00;;;1.90;;
14241;SDS011;7205;50.864;12.766;2023-03-09T14:14:54;2.17;;;1.97;;
14241;SDS011;7205;50.864;12.766;2023-03-09T14:17:23;2.30;;;2.20;;
14241;SDS011;7205;50.864;12.766;2023-03-09T14:19:51;2.17;;;2.07;;
14241;SDS011;7205;50.864;12.766;2023-03-09T14:22:20;2.10;;;2.00;;
14241;SDS011;7205;50.864;12.766;2023-03-09T14:24:51;2.00;;;1.90;;
14241;SDS011;7205;50.864;12.766;2023-03-09T14:27:20;1.90;;;1.80;;
14241;SDS011;7205;50.864;12.766;2023-03-09T14:29:51;2.17;;;2.07;;
14241;SDS011;7205;50.864;12.766;2023-03-09T14:32:20;2.30;;;2.20;;
14241;SDS011;7205;50.864;12.766;2023-03-09T14:34:55;2.17;;;2.07;;
14241;SDS011;7205;50.864;12.766;2023-03-09T14:37:23;2.47;;;2.30;;
14241;SDS011;7205;50.864;12.766;2023-03-09T14:39:51;2.80;;;2.23;;
14241;SDS011;7205;50.864;12.766;2023-03-09T14:42:24;2.43;;;2.00;;
14241;SDS011;7205;50.864;12.766;2023-03-09T14:45:05;3.03;;;2.40;;
14241;SDS011;7205;50.864;12.766;2023-03-09T14:47:53;14.53;;;7.50;;
14241;SDS011;7205;50.864;12.766;2023-03-09T14:50:23;2.30;;;2.20;;
14241;SDS011;7205;50.864;12.766;2023-03-09T14:52:51;2.40;;;2.30;;
14241;SDS011;7205;50.864;12.766;2023-03-09T14:55:18;3.23;;;2.93;;
14241;SDS011;7205;50.864;12.766;2023-03-09T14:57:46;3.30;;;3.10;;
14241;SDS011;7205;50.864;12.766;2023-03-09T15:00:18;4.73;;;3.60;;
14241;SDS011;7205;50.864;12.766;2023-03-09T15:02:46;5.23;;;3.53;;
14241;SDS011;7205;50.864;12.766;2023-03-09T15:05:15;4.57;;;4.17;;
14241;SDS011;7205;50.864;12.766;2023-03-09T15:07:43;4.10;;;3.80;;
14241;SDS011;7205;50.864;12.766;2023-03-09T15:10:10;3.83;;;3.53;;